Igor Guimarães

Olheiro - Flamengo
8 Jan 2028
Sábado
Processo

Personalidade

Adaptabilidade (2) Ambição (5) Controvérsia (10) Lealdade (17) Pressão (4) Profissionalismo (15) Espírito Esportivo (9) Temperamento (13)

Perfil

Estilo de Treinamento Democrático
Licença Continental B
Determinação 6
Gestão de Pessoas 11
Motivação 8
Disciplina 6
Satisfação no Trabalho
100%
Fadiga
0%
Função Olheiro
Salário 77.6K p/s
Contrato 14.03.2030

Desempenho

Comportamento Bom
Eficácia do Treinamento
41%
Desenvolvimento do Jogador
75%
Prevenção de Lesões
30%
Implementação Tática
30%

Eventos Recentes

Participou de uma reunião de recrutamento agora
Recomendou um alvo de transferência agora
Participou de uma reunião de recrutamento 7d atrás
Recomendou um alvo de transferência 7d atrás
Recomendou um alvo de transferência 7d atrás
Avaliou um jogador 7d atrás
Recomendou um alvo de transferência 14d atrás
Recomendou um alvo de transferência 14d atrás

Monitorando agora

59
Jogador Clube Status Habilidade Confiança Observado Última observação Último voto
Boubacar Kamara Aston Villa Ativo 159 / 153 40% 3 29.12.2027 -
Pedro Porro Tottenham Ativo 149 / 138 40% 2 29.12.2027 -
Manuel Ugarte Wrexham Ativo 147 / 139 40% 1 29.12.2027 -
Sven Botman Newcastle United Ativo 166 / 175 40% 2 13.12.2027 -
Beraldo Paris Saint-Germain Perdido 153 / 174 40% 1 13.12.2027 -
Nico González Newcastle United Ativo 160 / 178 40% 1 13.12.2027 -
Facundo Colidio Vasco da Gama Ativo 120 / 118 69% 1 05.07.2027 Aprovar
Henry Mosquera Bragantino Ativo 128 / 128 69% 1 02.06.2027 Aprovar
Josep Martínez Inter Ativo 149 / 133 40% 8 01.06.2027 -
Mark Travers Everton Ativo 152 / 138 40% 2 01.06.2027 -
Aaron Ramsdale Southampton Ativo 143 / 136 40% 1 01.06.2027 -
Randal Kolo Muani Juventus Ativo 151 / 148 40% 1 31.05.2027 -
Rodolfo Arteaga Liverpool Ativo 169 / 164 40% 1 31.05.2027 -
Diogo Costa Manchester United Ativo 173 / 180 40% 6 29.05.2027 -
Zion Suzuki Aston Villa Ativo 147 / 139 40% 6 28.05.2027 -
Carl Rushworth Coventry City Ativo 145 / 148 40% 1 28.05.2027 -
Senne Lammens Manchester United Ativo 155 / 166 40% 17 25.05.2027 -
Gianluigi Donnarumma Manchester City Ativo 175 / 174 40% 7 25.05.2027 -
Xaver Schlager Nottingham Forest Ativo 161 / 148 40% 4 22.05.2027 -
Óscar Mingueza Crystal Palace Ativo 153 / 164 40% 1 22.05.2027 -
Amadou Onana Newcastle United Ativo 153 / 146 40% 1 22.05.2027 -
Tino Livramento Newcastle United Ativo 157 / 142 40% 4 18.05.2027 -
Sandro Tonali Tottenham Ativo 163 / 171 40% 3 18.05.2027 -
Willian Pacho Juventus Ativo 164 / 152 40% 2 18.05.2027 -
Kostantis Tzolakis Hull City Ativo 134 / 161 40% 4 17.05.2027 -
Alex Scott Bournemouth Ativo 160 / 146 40% 1 17.05.2027 -
Enzo Fernández Manchester City Ativo 181 / 187 40% 1 17.05.2027 -
Joško Gvardiol Manchester City Ativo 179 / 160 40% 2 15.05.2027 -
Matheus Nunes Manchester City Ativo 163 / 159 40% 1 15.05.2027 -
Mads Hermansen West Ham United Ativo 135 / 139 40% 1 14.05.2027 -
Manu Koné AS Roma Perdido 154 / 159 40% 2 13.05.2027 -
Moisés Caicedo Chelsea Ativo 160 / 185 40% 1 13.05.2027 -
Elis Bishesari IFK Goteborg Ativo 136 / 113 40% 1 12.05.2027 -
Bruno Guimarães Arsenal Ativo 171 / 183 40% 1 09.05.2027 -
Quinten Timber Crystal Palace Ativo 157 / 156 40% 1 09.05.2027 -
Gabriel Arsenal Ativo 177 / 180 40% 1 05.05.2027 Mais informações
Diego Mascardi Spezia Ativo 132 / 134 40% 1 08.04.2027 -
Noussair Mazraoui Manchester United Ativo 151 / 158 40% 2 02.04.2027 -
Curtis Jones Inter Ativo 155 / 148 40% 2 02.04.2027 -
Nicolò Rovella Lazio Ativo 144 / 168 40% 2 29.03.2027 -
Eliás Montiel Atlético Madrid Ativo 125 / 144 40% 1 29.03.2027 -
Evan N'Dicka AS Roma Ativo 163 / 158 40% 1 17.03.2027 -
Cristhian Mosquera Arsenal Ativo 147 / 146 40% 1 17.03.2027 -
Trevoh Chalobah Como Ativo 161 / 160 40% 1 16.03.2027 -
Victor Froholdt Porto Ativo 156 / 136 40% 4 08.03.2027 -
Lucas Høgsberg Paris Saint-Germain Ativo 131 / 133 40% 2 08.03.2027 -
Lucas Bergvall Tottenham Ativo 133 / 157 40% 1 27.02.2027 -
Joe Gomez Liverpool Ativo 163 / 165 40% 3 23.02.2027 -
Adrien Truffert Bournemouth Ativo 162 / 141 40% 1 23.02.2027 -
Jérémy Jacquet Liverpool Ativo 141 / 141 40% 1 23.02.2027 -
Tijjani Reijnders Al-Qadisiyah Ativo 155 / 145 40% 1 18.02.2027 -
Théo Hernández Al-Hilal Ativo 146 / 144 40% 1 18.02.2027 -
Raoul Bellanova Atalanta Ativo 162 / 135 40% 1 17.02.2027 -
Luka Vušković Tottenham Ativo 137 / 140 40% 1 17.02.2027 -
Antonee Robinson Fulham Ativo 139 / 136 40% 1 06.01.2027 -
Rúben Dias Manchester City Ativo 178 / 177 40% 1 05.01.2027 -
Rúben Neves Al-Hilal Ativo 156 / 157 40% 1 04.01.2027 -
Álvaro Valles Betis Ativo 131 / 137 40% 1 01.08.2026 -
Guillaume Restes Toulouse FC Ativo 140 / 146 40% 1 01.08.2026 -